createdAt,value
2023-05-13T00:00:53.137Z,1016.24
2023-05-13T00:01:53.112Z,1016.22
2023-05-13T00:02:53.175Z,1016.25
2023-05-13T00:03:53.808Z,1016.23
2023-05-13T00:04:53.752Z,1016.21
2023-05-13T00:05:53.789Z,1016.19
2023-05-13T00:06:53.068Z,1016.25
2023-05-13T00:07:53.043Z,1016.22
2023-05-13T00:08:53.726Z,1016.22
2023-05-13T00:09:53.692Z,1016.21
2023-05-13T00:10:53.007Z,1016.19
2023-05-13T00:11:53.697Z,1016.21
2023-05-13T00:12:52.990Z,1016.20
2023-05-13T00:13:52.991Z,1016.24
2023-05-13T00:14:53.659Z,1016.21
2023-05-13T00:15:53.022Z,1016.18
2023-05-13T00:16:53.636Z,1016.25
2023-05-13T00:17:52.953Z,1016.25
2023-05-13T00:18:52.961Z,1016.22
2023-05-13T00:19:53.604Z,1016.24
2023-05-13T00:20:53.592Z,1016.25
2023-05-13T00:21:53.578Z,1016.22
2023-05-13T00:22:53.553Z,1016.22
2023-05-13T00:23:53.550Z,1016.25
2023-05-13T00:24:53.786Z,1016.21
2023-05-13T00:25:53.787Z,1016.23
2023-05-13T00:26:52.833Z,1016.23
2023-05-13T00:27:53.490Z,1016.23
2023-05-13T00:28:52.797Z,1016.24
2023-05-13T00:29:53.490Z,1016.26
2023-05-13T00:30:53.742Z,1016.21
2023-05-13T00:31:53.751Z,1016.22
2023-05-13T00:32:53.762Z,1016.21
2023-05-13T00:33:53.721Z,1016.19
2023-05-13T00:34:53.439Z,1016.21
2023-05-13T00:35:53.434Z,1016.21
2023-05-13T00:36:53.685Z,1016.15
2023-05-13T00:37:53.680Z,1016.16
2023-05-13T00:38:53.659Z,1016.17
2023-05-13T00:39:53.633Z,1016.20
2023-05-13T00:40:53.638Z,1016.20
2023-05-13T00:41:54.630Z,1016.16
2023-05-13T00:42:53.350Z,1016.18
2023-05-13T00:43:53.340Z,1016.22
2023-05-13T00:44:54.584Z,1016.20
2023-05-13T00:45:53.361Z,1016.22
2023-05-13T00:46:53.290Z,1016.23
2023-05-13T00:47:52.753Z,1016.22
2023-05-13T00:48:53.290Z,1016.20
2023-05-13T00:49:53.287Z,1016.23
2023-05-13T00:50:53.253Z,1016.22
2023-05-13T00:51:53.235Z,1016.23
2023-05-13T00:52:52.550Z,1016.22
2023-05-13T00:53:52.556Z,1016.21
2023-05-13T00:54:53.457Z,1016.24
2023-05-13T00:55:53.467Z,1016.23
2023-05-13T00:56:53.202Z,1016.23
2023-05-13T00:57:53.386Z,1016.28
2023-05-13T00:58:52.481Z,1016.26
2023-05-13T00:59:53.170Z,1016.27
2023-05-13T01:00:52.525Z,1016.22
2023-05-13T01:01:53.364Z,1016.22
2023-05-13T01:02:53.235Z,1016.23
2023-05-13T01:03:52.440Z,1016.23
2023-05-13T01:04:52.443Z,1016.24
2023-05-13T01:05:52.423Z,1016.22
2023-05-13T01:06:53.096Z,1016.21
2023-05-13T01:07:53.078Z,1016.23
2023-05-13T01:08:53.076Z,1016.22
2023-05-13T01:09:52.380Z,1016.21
2023-05-13T01:10:52.365Z,1016.25
2023-05-13T01:11:52.339Z,1016.21
2023-05-13T01:12:52.342Z,1016.22
2023-05-13T01:13:52.320Z,1016.21
2023-05-13T01:14:52.360Z,1016.26
2023-05-13T01:15:52.296Z,1016.22
2023-05-13T01:16:53.002Z,1016.23
2023-05-13T01:17:53.297Z,1016.21
2023-05-13T01:18:52.321Z,1016.20
2023-05-13T01:19:52.933Z,1016.18
2023-05-13T01:20:52.938Z,1016.26
2023-05-13T01:21:52.944Z,1016.23
2023-05-13T01:22:52.915Z,1016.20
2023-05-13T01:23:52.260Z,1016.22
2023-05-13T01:24:52.911Z,1016.24
2023-05-13T01:25:52.880Z,1016.24
2023-05-13T01:26:52.873Z,1016.25
2023-05-13T01:27:52.842Z,1016.22
2023-05-13T01:28:53.131Z,1016.22
2023-05-13T01:29:52.843Z,1016.23
2023-05-13T01:30:52.158Z,1016.22
2023-05-13T01:31:52.129Z,1016.24
2023-05-13T01:32:52.845Z,1016.26
2023-05-13T01:33:52.109Z,1016.24
2023-05-13T01:34:52.100Z,1016.23
2023-05-13T01:35:52.777Z,1016.24
2023-05-13T01:36:52.765Z,1016.22
2023-05-13T01:37:52.735Z,1016.24
2023-05-13T01:38:52.045Z,1016.26
2023-05-13T01:39:52.990Z,1016.26
2023-05-13T01:40:52.716Z,1016.30
2023-05-13T01:41:52.977Z,1016.28
2023-05-13T01:42:52.698Z,1016.28
2023-05-13T01:43:56.905Z,1016.29
2023-05-13T01:44:53.679Z,1016.32
2023-05-13T01:45:52.663Z,1016.32
2023-05-13T01:46:52.092Z,1016.34
2023-05-13T01:47:52.691Z,1016.36
2023-05-13T01:48:52.656Z,1016.34
2023-05-13T01:49:52.622Z,1016.32
2023-05-13T01:50:52.604Z,1016.33
2023-05-13T01:51:51.944Z,1016.32
2023-05-13T01:52:52.592Z,1016.35
2023-05-13T01:53:52.576Z,1016.37
2023-05-13T01:54:52.565Z,1016.34
2023-05-13T01:55:52.537Z,1016.32
2023-05-13T01:56:51.856Z,1016.31
2023-05-13T01:57:52.528Z,1016.38
2023-05-13T01:58:51.817Z,1016.35
2023-05-13T01:59:52.504Z,1016.37
2023-05-13T02:00:52.477Z,1016.37
2023-05-13T02:01:52.518Z,1016.33
2023-05-13T02:02:51.864Z,1016.31
2023-05-13T02:03:52.538Z,1016.32
2023-05-13T02:04:52.438Z,1016.30
2023-05-13T02:05:52.422Z,1016.30
2023-05-13T02:06:52.425Z,1016.31
2023-05-13T02:07:51.730Z,1016.32
2023-05-13T02:08:51.720Z,1016.29
2023-05-13T02:09:52.380Z,1016.28
2023-05-13T02:10:52.387Z,1016.29
2023-05-13T02:11:53.621Z,1016.29
2023-05-13T02:12:51.664Z,1016.29
2023-05-13T02:13:52.351Z,1016.30
2023-05-13T02:14:52.334Z,1016.26
2023-05-13T02:15:52.330Z,1016.26
2023-05-13T02:16:52.394Z,1016.27
2023-05-13T02:17:52.597Z,1016.29
2023-05-13T02:18:52.311Z,1016.25
2023-05-13T02:19:52.271Z,1016.23
2023-05-13T02:20:52.279Z,1016.24
2023-05-13T02:21:52.273Z,1016.26
2023-05-13T02:22:52.266Z,1016.23
2023-05-13T02:23:52.245Z,1016.23
2023-05-13T02:24:51.542Z,1016.23
2023-05-13T02:25:52.229Z,1016.23
2023-05-13T02:26:51.529Z,1016.26
2023-05-13T02:27:52.203Z,1016.24
2023-05-13T02:28:52.177Z,1016.25
2023-05-13T02:29:52.186Z,1016.25
2023-05-13T02:30:51.484Z,1016.28
2023-05-13T02:31:51.510Z,1016.25
2023-05-13T02:32:52.176Z,1016.22
2023-05-13T02:33:52.122Z,1016.25
2023-05-13T02:34:52.133Z,1016.25
2023-05-13T02:35:52.118Z,1016.22
2023-05-13T02:36:51.434Z,1016.25
2023-05-13T02:37:52.078Z,1016.26
2023-05-13T02:38:52.093Z,1016.25
2023-05-13T02:39:52.076Z,1016.24
2023-05-13T02:40:51.390Z,1016.27
2023-05-13T02:41:52.072Z,1016.25
2023-05-13T02:42:52.033Z,1016.24
2023-05-13T02:43:52.035Z,1016.24
2023-05-13T02:44:52.023Z,1016.29
2023-05-13T02:45:52.036Z,1016.27
2023-05-13T02:46:51.981Z,1016.27
2023-05-13T02:47:51.356Z,1016.25
2023-05-13T02:48:51.298Z,1016.24
2023-05-13T02:49:51.969Z,1016.20
2023-05-13T02:50:51.960Z,1016.24
2023-05-13T02:51:51.280Z,1016.19
2023-05-13T02:52:51.258Z,1016.24
2023-05-13T02:53:51.227Z,1016.26
2023-05-13T02:54:51.260Z,1016.22
2023-05-13T02:55:51.284Z,1016.21
2023-05-13T02:56:51.874Z,1016.24
2023-05-13T02:57:51.885Z,1016.21
2023-05-13T02:58:51.870Z,1016.20
2023-05-13T02:59:51.862Z,1016.20
2023-05-13T03:00:51.175Z,1016.17
2023-05-13T03:01:51.244Z,1016.19
2023-05-13T03:02:51.946Z,1016.14
2023-05-13T03:03:51.814Z,1016.10
2023-05-13T03:04:51.113Z,1016.08
2023-05-13T03:05:51.783Z,1016.08
2023-05-13T03:06:51.101Z,1016.08
2023-05-13T03:07:51.781Z,1016.09
2023-05-13T03:08:51.795Z,1016.06
2023-05-13T03:09:51.769Z,1016.13
2023-05-13T03:10:51.736Z,1016.09
2023-05-13T03:11:51.051Z,1016.08
2023-05-13T03:12:51.723Z,1016.08
2023-05-13T03:13:51.708Z,1016.12
2023-05-13T03:14:51.681Z,1016.10
2023-05-13T03:15:51.751Z,1016.11
2023-05-13T03:16:51.678Z,1016.15
2023-05-13T03:17:51.011Z,1016.14
2023-05-13T03:18:51.719Z,1016.14
2023-05-13T03:19:51.643Z,1016.13
2023-05-13T03:20:51.632Z,1016.08
2023-05-13T03:21:51.622Z,1016.11
2023-05-13T03:22:51.611Z,1016.14
2023-05-13T03:23:50.913Z,1016.12
2023-05-13T03:24:51.571Z,1016.10
2023-05-13T03:25:51.578Z,1016.10
2023-05-13T03:26:51.578Z,1016.13
2023-05-13T03:27:51.559Z,1016.10
2023-05-13T03:28:51.531Z,1016.18
2023-05-13T03:29:50.880Z,1016.12
2023-05-13T03:30:51.690Z,1016.17
2023-05-13T03:31:51.658Z,1016.15
2023-05-13T03:32:51.563Z,1016.16
2023-05-13T03:33:50.825Z,1016.15
2023-05-13T03:34:50.796Z,1016.19
2023-05-13T03:35:50.784Z,1016.22
2023-05-13T03:36:51.460Z,1016.16
2023-05-13T03:37:51.433Z,1016.19
2023-05-13T03:38:51.434Z,1016.21
2023-05-13T03:39:50.762Z,1016.21
2023-05-13T03:40:50.725Z,1016.18
2023-05-13T03:41:51.402Z,1016.19
2023-05-13T03:42:51.372Z,1016.16
2023-05-13T03:43:51.381Z,1016.25
2023-05-13T03:44:51.374Z,1016.20
2023-05-13T03:45:51.360Z,1016.23
2023-05-13T03:46:50.704Z,1016.18
2023-05-13T03:47:50.732Z,1016.21
2023-05-13T03:48:51.330Z,1016.24
2023-05-13T03:49:51.328Z,1016.22
2023-05-13T03:50:51.304Z,1016.19
2023-05-13T03:51:50.625Z,1016.19
2023-05-13T03:52:50.614Z,1016.21
2023-05-13T03:53:51.278Z,1016.21
2023-05-13T03:54:50.572Z,1016.24
2023-05-13T03:55:51.256Z,1016.23
2023-05-13T03:56:51.218Z,1016.20
2023-05-13T03:57:51.228Z,1016.24
2023-05-13T03:58:51.218Z,1016.18
2023-05-13T03:59:51.239Z,1016.20
2023-05-13T04:00:51.195Z,1016.23
2023-05-13T04:01:51.193Z,1016.22
2023-05-13T04:02:50.592Z,1016.22
2023-05-13T04:03:50.491Z,1016.21
2023-05-13T04:04:51.226Z,1016.24
2023-05-13T04:05:51.123Z,1016.25
2023-05-13T04:06:51.113Z,1016.34
2023-05-13T04:07:51.133Z,1016.35
2023-05-13T04:08:50.413Z,1016.33
2023-05-13T04:09:50.420Z,1016.22
2023-05-13T04:10:50.410Z,1016.27
2023-05-13T04:11:51.073Z,1016.33
2023-05-13T04:12:51.063Z,1016.31
2023-05-13T04:13:51.054Z,1016.34
2023-05-13T04:14:50.361Z,1016.35
2023-05-13T04:15:50.356Z,1016.38
2023-05-13T04:16:51.109Z,1016.39
2023-05-13T04:17:50.386Z,1016.40
2023-05-13T04:18:50.376Z,1016.40
2023-05-13T04:19:50.316Z,1016.44
2023-05-13T04:20:50.958Z,1016.45
2023-05-13T04:21:50.267Z,1016.40
2023-05-13T04:22:50.962Z,1016.42
2023-05-13T04:23:50.947Z,1016.42
2023-05-13T04:24:50.924Z,1016.47
2023-05-13T04:25:50.929Z,1016.47
2023-05-13T04:26:50.229Z,1016.46
2023-05-13T04:27:50.245Z,1016.51
2023-05-13T04:28:50.891Z,1016.53
2023-05-13T04:29:50.913Z,1016.51
2023-05-13T04:30:50.869Z,1016.53
2023-05-13T04:31:50.961Z,1016.51
2023-05-13T04:32:50.194Z,1016.53
2023-05-13T04:33:50.176Z,1016.51
2023-05-13T04:34:50.806Z,1016.52
2023-05-13T04:35:50.129Z,1016.51
2023-05-13T04:36:50.807Z,1016.58
2023-05-13T04:37:50.800Z,1016.59
2023-05-13T04:38:50.768Z,1016.61
2023-05-13T04:39:50.768Z,1016.64
2023-05-13T04:40:50.758Z,1016.58
2023-05-13T04:41:50.068Z,1016.65
2023-05-13T04:42:50.737Z,1016.69
2023-05-13T04:43:50.064Z,1016.71
2023-05-13T04:44:50.024Z,1016.72
2023-05-13T04:45:50.805Z,1016.73
2023-05-13T04:46:50.184Z,1016.76
2023-05-13T04:47:50.080Z,1016.80
2023-05-13T04:48:50.003Z,1016.77
2023-05-13T04:49:50.661Z,1016.80
2023-05-13T04:50:50.657Z,1016.77
2023-05-13T04:51:50.642Z,1016.80
2023-05-13T04:52:50.611Z,1016.80
2023-05-13T04:53:50.616Z,1016.83
2023-05-13T04:54:50.602Z,1016.83
2023-05-13T04:55:49.904Z,1016.82
2023-05-13T04:56:49.895Z,1016.86
2023-05-13T04:57:49.919Z,1016.83
2023-05-13T04:58:50.564Z,1016.87
2023-05-13T04:59:50.553Z,1016.90
2023-05-13T05:00:49.855Z,1016.89
2023-05-13T05:01:50.539Z,1016.87
2023-05-13T05:02:49.845Z,1016.93
2023-05-13T05:03:50.529Z,1016.95
2023-05-13T05:04:50.504Z,1016.93
2023-05-13T05:05:50.485Z,1017.00
2023-05-13T05:06:50.458Z,1016.98
2023-05-13T05:07:50.468Z,1017.02
2023-05-13T05:08:50.460Z,1017.04
2023-05-13T05:09:49.749Z,1016.98
2023-05-13T05:10:50.426Z,1017.03
2023-05-13T05:11:49.772Z,1017.01
2023-05-13T05:12:49.725Z,1017.07
2023-05-13T05:13:50.402Z,1017.08
2023-05-13T05:14:50.404Z,1017.08
2023-05-13T05:15:50.372Z,1017.08
2023-05-13T05:16:50.449Z,1017.11
2023-05-13T05:17:50.446Z,1017.09
2023-05-13T05:18:50.510Z,1017.14
2023-05-13T05:19:49.668Z,1017.19
2023-05-13T05:20:50.348Z,1017.16
2023-05-13T05:21:50.318Z,1017.15
2023-05-13T05:22:50.309Z,1017.16
2023-05-13T05:23:50.304Z,1017.19
2023-05-13T05:24:50.269Z,1017.19
2023-05-13T05:25:55.223Z,1017.23
2023-05-13T05:26:50.559Z,1017.25
2023-05-13T05:27:50.247Z,1017.24
2023-05-13T05:28:50.239Z,1017.23
2023-05-13T05:29:49.558Z,1017.27
2023-05-13T05:30:50.219Z,1017.24
2023-05-13T05:31:50.223Z,1017.23
2023-05-13T05:32:50.249Z,1017.26
2023-05-13T05:33:49.545Z,1017.23
2023-05-13T05:34:50.164Z,1017.18
2023-05-13T05:35:49.464Z,1017.25
2023-05-13T05:36:50.154Z,1017.23
2023-05-13T05:37:50.142Z,1017.24
2023-05-13T05:38:49.449Z,1017.21
2023-05-13T05:39:50.117Z,1017.23
2023-05-13T05:40:49.445Z,1017.21
2023-05-13T05:41:50.108Z,1017.20
2023-05-13T05:42:49.421Z,1017.24
2023-05-13T05:43:50.068Z,1017.21
2023-05-13T05:44:50.062Z,1017.23
2023-05-13T05:45:50.097Z,1017.24
2023-05-13T05:46:50.045Z,1017.22
2023-05-13T05:47:49.368Z,1017.23
2023-05-13T05:48:49.351Z,1017.21
2023-05-13T05:49:50.012Z,1017.21
2023-05-13T05:50:50.018Z,1017.18
2023-05-13T05:51:49.989Z,1017.20
2023-05-13T05:52:49.973Z,1017.24
2023-05-13T05:53:49.293Z,1017.23
2023-05-13T05:54:49.276Z,1017.23
2023-05-13T05:55:51.669Z,1017.26
2023-05-13T05:56:49.948Z,1017.29
2023-05-13T05:57:49.908Z,1017.27
2023-05-13T05:58:49.931Z,1017.28
2023-05-13T05:59:49.246Z,1017.28
2023-05-13T06:00:49.887Z,1017.32
2023-05-13T06:01:49.917Z,1017.29
2023-05-13T06:02:49.969Z,1017.32
2023-05-13T06:03:51.544Z,1017.35
2023-05-13T06:04:50.163Z,1017.35
2023-05-13T06:05:49.886Z,1017.39
2023-05-13T06:06:49.942Z,1017.44
2023-05-13T06:07:49.897Z,1017.42
2023-05-13T06:08:49.851Z,1017.53
2023-05-13T06:09:49.890Z,1017.54
2023-05-13T06:10:49.768Z,1017.53
2023-05-13T06:11:49.752Z,1017.45
2023-05-13T06:12:49.097Z,1017.44
2023-05-13T06:13:49.762Z,1017.42
2023-05-13T06:14:49.050Z,1017.45
2023-05-13T06:15:49.790Z,1017.48
2023-05-13T06:16:49.042Z,1017.45
2023-05-13T06:17:49.086Z,1017.47
2023-05-13T06:18:49.755Z,1017.46
2023-05-13T06:19:49.010Z,1017.44
2023-05-13T06:20:49.664Z,1017.39
2023-05-13T06:21:49.015Z,1017.42
2023-05-13T06:22:49.009Z,1017.38
2023-05-13T06:23:49.011Z,1017.45
2023-05-13T06:24:48.990Z,1017.45
2023-05-13T06:25:48.965Z,1017.39
2023-05-13T06:26:49.617Z,1017.47
2023-05-13T06:27:49.599Z,1017.59
2023-05-13T06:28:49.589Z,1017.66
2023-05-13T06:29:48.929Z,1017.69
2023-05-13T06:30:49.574Z,1017.73
2023-05-13T06:31:48.924Z,1017.71
2023-05-13T06:33:00.036Z,1017.83
2023-05-13T06:33:51.281Z,1017.91
2023-05-13T06:34:49.563Z,1017.86
2023-05-13T06:35:48.832Z,1017.80
2023-05-13T06:36:49.504Z,1017.74
2023-05-13T06:37:48.810Z,1017.83
2023-05-13T06:38:49.464Z,1017.92
2023-05-13T06:39:48.841Z,1017.87
2023-05-13T06:40:48.790Z,1017.92
2023-05-13T06:41:48.764Z,1017.96
2023-05-13T06:42:49.437Z,1017.92
2023-05-13T06:43:49.410Z,1017.95
2023-05-13T06:44:48.771Z,1017.96
2023-05-13T06:45:48.726Z,1017.97
2023-05-13T06:46:48.726Z,1017.90
2023-05-13T06:47:48.747Z,1017.89
2023-05-13T06:48:48.713Z,1017.79
2023-05-13T06:49:49.365Z,1017.85
2023-05-13T06:50:48.658Z,1017.83
2023-05-13T06:51:48.651Z,1017.91
2023-05-13T06:52:48.669Z,1017.86
2023-05-13T06:53:49.305Z,1017.93
2023-05-13T06:54:48.636Z,1017.87
2023-05-13T06:55:48.613Z,1017.77
2023-05-13T06:56:48.597Z,1017.80
2023-05-13T06:57:48.602Z,1017.75
2023-05-13T06:58:49.269Z,1017.71
2023-05-13T06:59:49.263Z,1017.76
2023-05-13T07:00:49.260Z,1017.73
2023-05-13T07:01:48.601Z,1017.73
2023-05-13T07:02:49.249Z,1017.68
2023-05-13T07:03:48.591Z,1017.60
2023-05-13T07:04:49.207Z,1017.59
2023-05-13T07:05:48.508Z,1017.60
2023-05-13T07:06:48.531Z,1017.58
2023-05-13T07:07:49.171Z,1017.54
2023-05-13T07:08:49.162Z,1017.53
2023-05-13T07:09:49.170Z,1017.57
2023-05-13T07:10:49.143Z,1017.56
2023-05-13T07:11:49.113Z,1017.54
2023-05-13T07:12:49.141Z,1017.55
2023-05-13T07:13:49.150Z,1017.55
2023-05-13T07:14:48.401Z,1017.56
2023-05-13T07:15:48.408Z,1017.57
2023-05-13T07:16:49.161Z,1017.51
2023-05-13T07:17:49.217Z,1017.56
2023-05-13T07:18:49.107Z,1017.53
2023-05-13T07:19:48.344Z,1017.51
2023-05-13T07:20:48.352Z,1017.55
2023-05-13T07:21:49.013Z,1017.50
2023-05-13T07:22:48.346Z,1017.48
2023-05-13T07:23:49.024Z,1017.45
2023-05-13T07:24:48.984Z,1017.45
2023-05-13T07:25:48.960Z,1017.45
2023-05-13T07:26:48.273Z,1017.46
2023-05-13T07:27:48.273Z,1017.39
2023-05-13T07:28:48.948Z,1017.39
2023-05-13T07:29:48.331Z,1017.41
2023-05-13T07:30:48.972Z,1017.40
2023-05-13T07:31:48.913Z,1017.42
2023-05-13T07:32:48.262Z,1017.37
2023-05-13T07:33:48.891Z,1017.40
2023-05-13T07:34:48.862Z,1017.42
2023-05-13T07:35:48.871Z,1017.42
2023-05-13T07:36:48.188Z,1017.44
2023-05-13T07:37:48.161Z,1017.42
2023-05-13T07:38:48.146Z,1017.45
2023-05-13T07:39:48.155Z,1017.45
2023-05-13T07:40:48.824Z,1017.44
2023-05-13T07:41:48.247Z,1017.47
2023-05-13T07:42:48.805Z,1017.42
2023-05-13T07:43:48.800Z,1017.46
2023-05-13T07:44:48.764Z,1017.49
2023-05-13T07:45:48.102Z,1017.47
2023-05-13T07:46:48.830Z,1017.54
2023-05-13T07:47:55.129Z,1017.50
2023-05-13T07:48:48.718Z,1017.51
2023-05-13T07:49:48.726Z,1017.52
2023-05-13T07:50:48.022Z,1017.49
2023-05-13T07:51:48.008Z,1017.53
2023-05-13T07:52:48.694Z,1017.48
2023-05-13T07:53:48.011Z,1017.47
2023-05-13T07:54:48.666Z,1017.49
2023-05-13T07:55:48.661Z,1017.48
2023-05-13T07:56:48.026Z,1017.46
2023-05-13T07:57:47.963Z,1017.46
2023-05-13T07:58:48.612Z,1017.47
2023-05-13T07:59:48.620Z,1017.53
2023-05-13T08:00:48.610Z,1017.49
2023-05-13T08:01:47.907Z,1017.50
2023-05-13T08:02:47.971Z,1017.47
2023-05-13T08:03:48.076Z,1017.44
2023-05-13T08:04:47.908Z,1017.50
2023-05-13T08:05:48.554Z,1017.51
2023-05-13T08:06:48.544Z,1017.50
2023-05-13T08:07:48.515Z,1017.54
2023-05-13T08:08:47.861Z,1017.59
2023-05-13T08:09:48.780Z,1017.51
2023-05-13T08:10:48.497Z,1017.53
2023-05-13T08:11:48.472Z,1017.53
2023-05-13T08:12:48.457Z,1017.63
2023-05-13T08:13:47.786Z,1017.56
2023-05-13T08:14:49.009Z,1017.61
2023-05-13T08:15:48.445Z,1017.54
2023-05-13T08:16:47.858Z,1017.53
2023-05-13T08:17:48.468Z,1017.57
2023-05-13T08:18:48.470Z,1017.53
2023-05-13T08:19:48.399Z,1017.59
2023-05-13T08:20:48.391Z,1017.52
2023-05-13T08:21:47.724Z,1017.42
2023-05-13T08:22:47.688Z,1017.43
2023-05-13T08:23:48.364Z,1017.45
2023-05-13T08:24:47.685Z,1017.45
2023-05-13T08:25:48.321Z,1017.47
2023-05-13T08:26:47.671Z,1017.43
2023-05-13T08:27:48.316Z,1017.39
2023-05-13T08:28:48.534Z,1017.44
2023-05-13T08:29:47.602Z,1017.44
2023-05-13T08:30:48.620Z,1017.45
2023-05-13T08:31:48.334Z,1017.40
2023-05-13T08:32:48.271Z,1017.47
2023-05-13T08:33:48.244Z,1017.43
2023-05-13T08:34:48.237Z,1017.43
2023-05-13T08:35:48.223Z,1017.41
2023-05-13T08:36:48.213Z,1017.42
2023-05-13T08:37:47.510Z,1017.47
2023-05-13T08:38:48.196Z,1017.36
2023-05-13T08:39:48.415Z,1017.49
2023-05-13T08:40:48.156Z,1017.46
2023-05-13T08:41:48.164Z,1017.42
2023-05-13T08:42:47.467Z,1017.47
2023-05-13T08:43:48.151Z,1017.44
2023-05-13T08:44:48.115Z,1017.40
2023-05-13T08:45:48.898Z,1017.43
2023-05-13T08:46:48.112Z,1017.46
2023-05-13T08:47:48.873Z,1017.43
2023-05-13T08:48:47.422Z,1017.46
2023-05-13T08:49:48.072Z,1017.44
2023-05-13T08:50:48.075Z,1017.44
2023-05-13T08:51:48.068Z,1017.43
2023-05-13T08:52:48.060Z,1017.52
2023-05-13T08:53:48.028Z,1017.52
2023-05-13T08:54:47.356Z,1017.44
2023-05-13T08:55:47.337Z,1017.40
2023-05-13T08:56:47.340Z,1017.39
2023-05-13T08:57:47.998Z,1017.44
2023-05-13T08:58:47.984Z,1017.46
2023-05-13T08:59:47.986Z,1017.45
2023-05-13T09:00:47.273Z,1017.47
2023-05-13T09:01:48.004Z,1017.41
2023-05-13T09:02:47.940Z,1017.43
2023-05-13T09:03:47.920Z,1017.43
2023-05-13T09:04:47.974Z,1017.41
2023-05-13T09:05:47.916Z,1017.42
2023-05-13T09:06:47.227Z,1017.45
2023-05-13T09:07:47.226Z,1017.42
2023-05-13T09:08:47.187Z,1017.40
2023-05-13T09:09:47.882Z,1017.44
2023-05-13T09:10:47.190Z,1017.42
2023-05-13T09:11:47.866Z,1017.49
2023-05-13T09:12:47.178Z,1017.46
2023-05-13T09:13:47.144Z,1017.43
2023-05-13T09:14:47.815Z,1017.45
2023-05-13T09:15:47.904Z,1017.46
2023-05-13T09:16:47.802Z,1017.41
2023-05-13T09:17:47.822Z,1017.46
2023-05-13T09:18:47.167Z,1017.44
2023-05-13T09:19:47.842Z,1017.47
2023-05-13T09:20:47.758Z,1017.46
2023-05-13T09:21:47.729Z,1017.46
2023-05-13T09:22:47.039Z,1017.49
2023-05-13T09:23:47.023Z,1017.46
2023-05-13T09:24:47.705Z,1017.46
2023-05-13T09:25:47.940Z,1017.45
2023-05-13T09:26:47.931Z,1017.44
2023-05-13T09:27:46.969Z,1017.43
2023-05-13T09:28:47.661Z,1017.39
2023-05-13T09:29:47.921Z,1017.41
2023-05-13T09:30:47.065Z,1017.42
2023-05-13T09:31:47.654Z,1017.38
2023-05-13T09:32:48.925Z,1017.34
2023-05-13T09:33:47.612Z,1017.36
2023-05-13T09:34:47.595Z,1017.40
2023-05-13T09:35:47.830Z,1017.24
2023-05-13T09:36:48.334Z,1017.36
2023-05-13T09:37:47.597Z,1017.36
2023-05-13T09:38:47.554Z,1017.30
2023-05-13T09:39:47.553Z,1017.34
2023-05-13T09:40:46.868Z,1017.34
2023-05-13T09:41:47.520Z,1017.34
2023-05-13T09:42:47.537Z,1017.33
2023-05-13T09:43:47.496Z,1017.28
2023-05-13T09:44:47.470Z,1017.33
2023-05-13T09:45:47.468Z,1017.26
2023-05-13T09:46:46.875Z,1017.34
2023-05-13T09:47:46.785Z,1017.34
2023-05-13T09:48:47.458Z,1017.26
2023-05-13T09:49:47.416Z,1017.25
2023-05-13T09:50:47.425Z,1017.23
2023-05-13T09:51:46.734Z,1017.25
2023-05-13T09:52:46.730Z,1017.25
2023-05-13T09:53:47.381Z,1017.27
2023-05-13T09:54:47.367Z,1017.24
2023-05-13T09:55:46.685Z,1017.22
2023-05-13T09:56:46.676Z,1017.22
2023-05-13T09:57:46.668Z,1017.20
2023-05-13T09:58:47.363Z,1017.16
2023-05-13T09:59:47.609Z,1017.22
2023-05-13T10:00:48.721Z,1017.25
2023-05-13T10:01:48.686Z,1017.26
2023-05-13T10:02:46.667Z,1017.26
2023-05-13T10:03:48.604Z,1017.23
2023-05-13T10:04:46.599Z,1017.22
2023-05-13T10:05:46.587Z,1017.21
2023-05-13T10:06:46.570Z,1017.31
2023-05-13T10:07:47.254Z,1017.29
2023-05-13T10:08:47.246Z,1017.17
2023-05-13T10:09:47.228Z,1017.19
2023-05-13T10:10:47.484Z,1017.17
2023-05-13T10:11:46.530Z,1017.13
2023-05-13T10:12:47.186Z,1017.11
2023-05-13T10:13:47.170Z,1017.11
2023-05-13T10:14:47.177Z,1017.13
2023-05-13T10:15:46.479Z,1017.14
2023-05-13T10:16:46.552Z,1017.18
2023-05-13T10:17:46.525Z,1017.08
2023-05-13T10:18:46.491Z,1017.11
2023-05-13T10:19:47.131Z,1017.14
2023-05-13T10:20:47.114Z,1017.13
2023-05-13T10:21:47.112Z,1017.12
2023-05-13T10:22:47.077Z,1017.13
2023-05-13T10:23:46.408Z,1017.19
2023-05-13T10:24:46.395Z,1017.08
2023-05-13T10:25:46.376Z,1017.14
2023-05-13T10:26:47.045Z,1017.13
2023-05-13T10:27:46.385Z,1017.15
2023-05-13T10:28:46.351Z,1017.15
2023-05-13T10:29:47.021Z,1017.18
2023-05-13T10:30:47.253Z,1017.14
2023-05-13T10:31:46.455Z,1017.11
2023-05-13T10:32:47.039Z,1017.06
2023-05-13T10:33:46.296Z,1017.14
2023-05-13T10:34:47.232Z,1017.14
2023-05-13T10:35:46.952Z,1017.11
2023-05-13T10:36:46.928Z,1017.15
2023-05-13T10:37:46.258Z,1017.08
2023-05-13T10:38:46.922Z,1017.14
2023-05-13T10:39:46.930Z,1017.02
2023-05-13T10:40:46.882Z,1017.12
2023-05-13T10:41:46.215Z,1017.03
2023-05-13T10:42:46.198Z,1016.97
2023-05-13T10:43:46.889Z,1017.03
2023-05-13T10:44:46.853Z,1016.90
2023-05-13T10:45:46.205Z,1016.92
2023-05-13T10:46:46.860Z,1016.91
2023-05-13T10:47:47.114Z,1016.90
2023-05-13T10:48:47.062Z,1016.80
2023-05-13T10:49:46.810Z,1016.88
2023-05-13T10:50:46.773Z,1016.88
2023-05-13T10:51:46.101Z,1016.79
2023-05-13T10:52:46.767Z,1016.78
2023-05-13T10:53:46.760Z,1016.82
2023-05-13T10:54:46.740Z,1016.81
2023-05-13T10:55:46.067Z,1016.84
2023-05-13T10:56:46.724Z,1016.82
2023-05-13T10:57:46.055Z,1016.87
2023-05-13T10:58:46.028Z,1016.81
2023-05-13T10:59:46.039Z,1016.77
2023-05-13T11:00:46.681Z,1016.80
2023-05-13T11:01:46.074Z,1016.81
2023-05-13T11:02:46.030Z,1016.78
2023-05-13T11:03:47.006Z,1016.85
2023-05-13T11:04:45.972Z,1016.80
2023-05-13T11:05:46.624Z,1016.86
2023-05-13T11:06:46.614Z,1016.80
2023-05-13T11:07:46.612Z,1016.89
2023-05-13T11:08:46.583Z,1016.86
2023-05-13T11:09:46.574Z,1016.80
2023-05-13T11:10:45.897Z,1016.91
2023-05-13T11:11:46.570Z,1016.73
2023-05-13T11:12:45.869Z,1016.74
2023-05-13T11:13:45.879Z,1016.70
2023-05-13T11:14:45.836Z,1016.76
2023-05-13T11:15:45.955Z,1016.69
2023-05-13T11:16:46.020Z,1016.74
2023-05-13T11:17:46.575Z,1016.67
2023-05-13T11:18:46.538Z,1016.70
2023-05-13T11:19:46.477Z,1016.64
2023-05-13T11:20:52.286Z,1016.73
2023-05-13T11:21:46.759Z,1016.71
2023-05-13T11:22:45.793Z,1016.68
2023-05-13T11:23:45.775Z,1016.70
2023-05-13T11:24:46.424Z,1016.73
2023-05-13T11:25:45.715Z,1016.72
2023-05-13T11:26:45.731Z,1016.73
2023-05-13T11:27:45.718Z,1016.74
2023-05-13T11:28:45.690Z,1016.66
2023-05-13T11:29:46.367Z,1016.70
2023-05-13T11:30:46.390Z,1016.71
2023-05-13T11:31:45.717Z,1016.69
2023-05-13T11:32:46.375Z,1016.68
2023-05-13T11:33:46.337Z,1016.64
2023-05-13T11:34:46.316Z,1016.71
2023-05-13T11:35:46.308Z,1016.67
2023-05-13T11:36:46.285Z,1016.64
2023-05-13T11:37:46.257Z,1016.70
2023-05-13T11:38:46.266Z,1016.64
2023-05-13T11:39:46.257Z,1016.74
2023-05-13T11:40:46.244Z,1016.61
2023-05-13T11:41:46.224Z,1016.59
2023-05-13T11:42:46.226Z,1016.64
2023-05-13T11:43:46.216Z,1016.64
2023-05-13T11:44:45.520Z,1016.58
2023-05-13T11:45:46.201Z,1016.54
2023-05-13T11:46:46.164Z,1016.70
2023-05-13T11:47:46.221Z,1016.61
2023-05-13T11:48:45.471Z,1016.61
2023-05-13T11:49:46.148Z,1016.67
2023-05-13T11:50:45.491Z,1016.59
2023-05-13T11:51:46.120Z,1016.64
2023-05-13T11:52:45.438Z,1016.59
2023-05-13T11:53:46.101Z,1016.59
2023-05-13T11:54:45.400Z,1016.55
2023-05-13T11:55:45.405Z,1016.55
2023-05-13T11:56:46.072Z,1016.56
2023-05-13T11:57:46.064Z,1016.58
2023-05-13T11:58:46.059Z,1016.59
2023-05-13T11:59:48.413Z,1016.62
2023-05-13T12:00:46.730Z,1016.67
2023-05-13T12:01:46.056Z,1016.65
2023-05-13T12:02:45.348Z,1016.60
2023-05-13T12:03:45.996Z,1016.59
2023-05-13T12:04:45.996Z,1016.60
2023-05-13T12:05:46.020Z,1016.55